createdAt,value
2023-03-22T00:04:49.505Z,61.08
2023-03-22T00:09:51.924Z,60.55
2023-03-22T00:14:55.477Z,60.71
2023-03-22T00:19:58.673Z,60.64
2023-03-22T00:25:00.994Z,61.01
2023-03-22T00:30:05.815Z,61.40
2023-03-22T00:35:08.553Z,61.53
2023-03-22T00:40:14.877Z,62.06
2023-03-22T00:45:17.922Z,64.69
2023-03-22T00:50:20.831Z,64.04
2023-03-22T00:55:23.742Z,62.92
2023-03-22T01:00:25.920Z,63.03
2023-03-22T01:05:28.768Z,62.29
2023-03-22T01:10:31.611Z,61.65
2023-03-22T01:15:34.042Z,61.71
2023-03-22T01:20:36.554Z,61.83
2023-03-22T01:25:38.698Z,61.82
2023-03-22T01:30:41.466Z,61.83
2023-03-22T01:35:43.945Z,62.17
2023-03-22T01:40:46.113Z,61.60
2023-03-22T01:45:49.491Z,61.65
2023-03-22T01:51:03.520Z,61.58
2023-03-22T01:56:06.480Z,62.17
2023-03-22T02:01:11.556Z,62.42
2023-03-22T02:06:13.774Z,62.24
2023-03-22T02:11:25.789Z,61.67
2023-03-22T02:16:47.119Z,61.19
2023-03-22T02:22:17.056Z,61.19
2023-03-22T02:27:49.900Z,61.66
2023-03-22T02:33:07.459Z,61.52
2023-03-22T02:38:18.481Z,62.41
2023-03-22T02:43:21.079Z,63.32
2023-03-22T02:48:28.638Z,62.35
2023-03-22T02:53:48.028Z,61.98
2023-03-22T02:58:57.745Z,61.18
2023-03-22T03:04:05.140Z,61.42
2023-03-22T03:09:08.449Z,61.89
2023-03-22T03:14:21.152Z,61.29
2023-03-22T03:19:52.117Z,61.41
2023-03-22T03:25:25.267Z,61.73
2023-03-22T03:30:43.542Z,62.09
2023-03-22T03:35:59.008Z,62.42
2023-03-22T03:41:09.474Z,62.12
2023-03-22T03:46:12.367Z,62.44
2023-03-22T03:51:14.558Z,62.42
2023-03-22T03:56:16.681Z,63.00
2023-03-22T04:01:20.037Z,62.65
2023-03-22T04:06:22.235Z,62.36
2023-03-22T04:11:24.345Z,62.45
2023-03-22T04:16:26.624Z,65.59
2023-03-22T04:21:28.810Z,64.84
2023-03-22T04:26:32.516Z,63.36
2023-03-22T04:31:36.938Z,62.95
2023-03-22T04:36:42.216Z,62.71
2023-03-22T04:41:44.261Z,62.82
2023-03-22T04:46:46.530Z,62.77
2023-03-22T04:51:48.798Z,63.14
2023-03-22T04:56:51.329Z,62.82
2023-03-22T05:01:54.633Z,62.18
2023-03-22T05:06:56.793Z,62.33
2023-03-22T05:11:58.908Z,61.80
2023-03-22T05:17:01.199Z,61.64
2023-03-22T05:22:03.388Z,61.05
2023-03-22T05:27:06.197Z,61.10
2023-03-22T05:32:08.320Z,60.76
2023-03-22T05:37:10.636Z,60.26
2023-03-22T05:42:12.763Z,60.33
2023-03-22T05:47:14.950Z,60.18
2023-03-22T05:52:17.157Z,60.40
2023-03-22T05:57:19.346Z,60.21
2023-03-22T06:02:22.494Z,59.90
2023-03-22T06:07:25.737Z,59.96
2023-03-22T06:12:30.093Z,60.34
2023-03-22T06:17:32.781Z,60.58
2023-03-22T06:22:35.434Z,60.83
2023-03-22T06:27:38.360Z,60.90
2023-03-22T06:32:40.605Z,60.19
2023-03-22T06:37:42.866Z,60.17
2023-03-22T06:42:44.985Z,60.26
2023-03-22T06:47:47.100Z,60.05
2023-03-22T06:52:49.367Z,59.73
2023-03-22T06:57:51.536Z,59.86
2023-03-22T07:02:53.697Z,59.86
2023-03-22T07:07:55.965Z,59.82
2023-03-22T07:12:58.628Z,60.17
2023-03-22T07:18:02.046Z,59.44
2023-03-22T07:23:04.588Z,59.09
2023-03-22T07:28:07.382Z,59.29
2023-03-22T07:33:10.893Z,58.90
2023-03-22T07:38:13.575Z,58.75
2023-03-22T07:43:16.186Z,58.94
2023-03-22T07:48:22.432Z,58.86
2023-03-22T07:53:24.831Z,58.68
2023-03-22T07:58:27.100Z,58.11
2023-03-22T08:03:29.290Z,57.52
2023-03-22T08:08:32.323Z,56.86
2023-03-22T08:13:35.286Z,57.02
2023-03-22T08:18:38.449Z,56.61
2023-03-22T08:23:42.357Z,56.12
2023-03-22T08:28:44.945Z,55.81
2023-03-22T08:33:48.525Z,54.39
2023-03-22T08:38:50.863Z,53.30
2023-03-22T08:43:53.001Z,52.80
2023-03-22T08:48:55.315Z,51.82
2023-03-22T08:54:00.703Z,51.05
2023-03-22T08:59:03.053Z,50.89
2023-03-22T09:04:06.052Z,49.32
2023-03-22T09:09:08.475Z,49.07
2023-03-22T09:14:11.074Z,49.40
2023-03-22T09:19:13.316Z,49.33
2023-03-22T09:24:15.427Z,49.04
2023-03-22T09:29:17.798Z,48.97
2023-03-22T09:34:20.210Z,49.23
2023-03-22T09:39:22.892Z,49.43
2023-03-22T09:44:32.647Z,49.54
2023-03-22T09:49:53.061Z,49.09
2023-03-22T09:54:56.162Z,49.21
2023-03-22T10:00:19.067Z,49.55
2023-03-22T10:05:30.627Z,49.05
2023-03-22T10:10:32.956Z,48.62
2023-03-22T10:15:39.356Z,48.06
2023-03-22T10:21:07.264Z,47.57
2023-03-22T10:26:18.722Z,47.24
2023-03-22T10:31:22.401Z,47.64
2023-03-22T10:36:31.676Z,46.42
2023-03-22T10:41:35.245Z,45.71
2023-03-22T10:46:43.130Z,44.81
2023-03-22T10:51:52.114Z,45.22
2023-03-22T10:56:54.306Z,44.15
2023-03-22T11:01:56.680Z,43.62
2023-03-22T11:06:58.987Z,43.78
2023-03-22T11:12:02.004Z,44.06
2023-03-22T11:17:06.858Z,44.07
2023-03-22T11:22:26.737Z,42.16
2023-03-22T11:27:33.266Z,42.51
2023-03-22T11:32:40.148Z,43.28
2023-03-22T11:37:43.341Z,43.65
2023-03-22T11:42:46.816Z,43.95
2023-03-22T11:47:49.394Z,43.74
2023-03-22T11:52:52.847Z,43.83
2023-03-22T11:57:57.990Z,44.00
2023-03-22T12:03:20.772Z,44.75
2023-03-22T12:08:44.255Z,44.62
2023-03-22T12:14:00.107Z,44.22
2023-03-22T12:19:14.062Z,44.06
2023-03-22T12:24:28.642Z,44.00
2023-03-22T12:29:32.957Z,44.42
2023-03-22T12:34:44.030Z,44.23
2023-03-22T12:40:01.326Z,43.27
2023-03-22T12:45:12.134Z,42.55
2023-03-22T12:50:29.321Z,42.00
2023-03-22T12:55:36.119Z,41.79
2023-03-22T13:00:49.996Z,40.58
2023-03-22T13:06:02.505Z,39.67
2023-03-22T13:11:05.952Z,38.13
2023-03-22T13:16:11.429Z,38.49
2023-03-22T13:21:17.616Z,38.32
2023-03-22T13:26:20.922Z,37.86
2023-03-22T13:31:58.821Z,37.94
2023-03-22T13:37:03.913Z,38.79
2023-03-22T13:42:22.198Z,39.13
2023-03-22T13:48:29.402Z,39.05
2023-03-22T13:53:37.864Z,37.34
2023-03-22T13:58:48.707Z,37.41
2023-03-22T14:03:51.550Z,37.61
2023-03-22T14:09:02.896Z,37.65
2023-03-22T14:14:13.756Z,36.75
2023-03-22T14:19:23.695Z,37.31
